createdAt,value
2023-01-04T00:01:14.435Z,101785.13
2023-01-04T00:03:42.355Z,101764.75
2023-01-04T00:06:14.250Z,101770.75
2023-01-04T00:08:42.636Z,101769.75
2023-01-04T00:11:13.720Z,101768.78
2023-01-04T00:13:41.802Z,101765.03
2023-01-04T00:16:13.628Z,101741.06
2023-01-04T00:18:42.008Z,101741.06
2023-01-04T00:21:13.985Z,101737.41
2023-01-04T00:23:43.381Z,101730.19
2023-01-04T00:26:12.618Z,101718.75
2023-01-04T00:28:40.365Z,101719.44
2023-01-04T00:31:10.494Z,101706.19
2023-01-04T00:33:39.014Z,101698.41
2023-01-04T00:36:08.881Z,101682.34
2023-01-04T00:38:38.410Z,101679.72
2023-01-04T00:41:07.796Z,101663.16
2023-01-04T00:43:35.662Z,101658.53
2023-01-04T00:46:03.558Z,101646.97
2023-01-04T00:48:32.898Z,101643.63
2023-01-04T00:51:03.331Z,101644.44
2023-01-04T00:53:31.057Z,101620.78
2023-01-04T00:56:01.882Z,101619.94
2023-01-04T00:58:29.615Z,101609.34
2023-01-04T01:00:57.183Z,101603.22
2023-01-04T01:03:24.832Z,101601.41
2023-01-04T01:05:52.507Z,101595.25
2023-01-04T01:08:26.253Z,101588.31
2023-01-04T01:10:54.757Z,101588.31
2023-01-04T01:13:24.166Z,101586.66
2023-01-04T01:15:51.828Z,101586.34
2023-01-04T01:18:20.490Z,101579.25
2023-01-04T01:20:48.102Z,101577.44
2023-01-04T01:23:16.866Z,101575.59
2023-01-04T01:25:44.627Z,101572.81
2023-01-04T01:28:12.197Z,101557.91
2023-01-04T01:30:42.863Z,101546.47
2023-01-04T01:33:10.819Z,101531.56
2023-01-04T01:35:39.076Z,101526.28
2023-01-04T01:38:06.733Z,101526.13
2023-01-04T01:40:34.665Z,101511.22
2023-01-04T01:43:02.366Z,101514.56
2023-01-04T01:45:33.508Z,101502.44
2023-01-04T01:48:08.231Z,101504.81
2023-01-04T01:50:41.740Z,101497.53
2023-01-04T01:53:10.659Z,101488.91
2023-01-04T01:55:40.467Z,101482.78
2023-01-04T01:58:12.151Z,101467.84
2023-01-04T02:00:39.777Z,101464.38
2023-01-04T02:03:15.040Z,101463.56
2023-01-04T02:05:44.172Z,101457.13
2023-01-04T02:08:14.482Z,101443.06
2023-01-04T02:10:42.226Z,101436.63
2023-01-04T02:13:13.590Z,101425.19
2023-01-04T02:16:01.573Z,101427.69
2023-01-04T02:18:38.024Z,101407.50
2023-01-04T02:21:13.522Z,101402.72
2023-01-04T02:24:09.024Z,101382.50
2023-01-04T02:27:11.106Z,101381.69
2023-01-04T02:30:30.540Z,101367.31
2023-01-04T02:33:15.044Z,101356.03
2023-01-04T02:35:51.744Z,101345.31
2023-01-04T02:38:26.313Z,101345.97
2023-01-04T02:41:01.832Z,101325.94
2023-01-04T02:43:52.780Z,101321.47
2023-01-04T02:46:27.168Z,101324.13
2023-01-04T02:49:17.764Z,101314.50
2023-01-04T02:51:45.487Z,101307.38
2023-01-04T02:54:16.451Z,101296.13
2023-01-04T02:57:06.169Z,101285.84
2023-01-04T02:59:51.653Z,101283.34
2023-01-04T03:02:49.062Z,101263.81
2023-01-04T03:05:53.213Z,101260.47
2023-01-04T03:08:30.652Z,101253.53
2023-01-04T03:11:02.718Z,101262.16
2023-01-04T03:13:34.022Z,101241.94
2023-01-04T03:16:08.190Z,101237.34
2023-01-04T03:18:40.986Z,101216.47
2023-01-04T03:21:12.746Z,101215.78
2023-01-04T03:23:58.540Z,101209.50
2023-01-04T03:26:47.574Z,101201.41
2023-01-04T03:29:39.207Z,101188.31
2023-01-04T03:32:30.094Z,101172.44
2023-01-04T03:35:15.667Z,101185.53
2023-01-04T03:37:49.479Z,101161.19
2023-01-04T03:40:44.104Z,101154.06
2023-01-04T03:43:35.832Z,101147.78
2023-01-04T03:46:24.266Z,101139.81
2023-01-04T03:48:58.597Z,101127.75
2023-01-04T03:51:29.956Z,101117.16
2023-01-04T03:54:04.815Z,101113.66
2023-01-04T03:56:34.580Z,101109.19
2023-01-04T03:59:02.800Z,101098.63
2023-01-04T04:01:31.066Z,101089.00
2023-01-04T04:04:16.542Z,101088.84
2023-01-04T04:07:01.936Z,101089.69
2023-01-04T04:09:30.985Z,101080.59
2023-01-04T04:11:59.197Z,101056.59
2023-01-04T04:14:26.995Z,101067.03
2023-01-04T04:16:54.783Z,101052.31
2023-01-04T04:19:22.616Z,101045.19
2023-01-04T04:21:50.196Z,101033.91
2023-01-04T04:24:19.993Z,101022.34
2023-01-04T04:26:48.920Z,101016.56
2023-01-04T04:29:16.566Z,101007.94
2023-01-04T04:31:44.547Z,101000.66
2023-01-04T04:34:12.760Z,100987.44
2023-01-04T04:36:40.427Z,100980.31
2023-01-04T04:39:08.206Z,100975.84
2023-01-04T04:41:41.415Z,100966.94
2023-01-04T04:44:12.243Z,100954.34
2023-01-04T04:46:40.168Z,100947.06
2023-01-04T04:49:09.009Z,100946.41
2023-01-04T04:51:37.743Z,100937.31
2023-01-04T04:54:06.789Z,100926.69
2023-01-04T04:56:34.467Z,100928.19
2023-01-04T04:59:02.050Z,100911.97
2023-01-04T05:01:31.490Z,100910.34
2023-01-04T05:03:59.275Z,100902.41
2023-01-04T05:06:27.263Z,100885.50
2023-01-04T05:08:55.163Z,100887.81
2023-01-04T05:11:42.752Z,100876.22
2023-01-04T05:14:09.676Z,100868.94
2023-01-04T05:16:38.733Z,100862.66
2023-01-04T05:19:06.453Z,100854.38
2023-01-04T05:21:34.071Z,100842.81
2023-01-04T05:24:01.752Z,100833.84
2023-01-04T05:26:29.386Z,100828.22
2023-01-04T05:28:56.954Z,100835.00
2023-01-04T05:31:24.370Z,100824.25
2023-01-04T05:33:53.405Z,100816.28
2023-01-04T05:36:21.165Z,100808.16
2023-01-04T05:38:48.787Z,100800.22
2023-01-04T05:41:33.930Z,100791.28
2023-01-04T05:44:01.568Z,100785.66
2023-01-04T05:46:29.166Z,100793.44
2023-01-04T05:48:58.397Z,100773.03
2023-01-04T05:51:26.019Z,100770.06
2023-01-04T05:53:53.570Z,100775.19
2023-01-04T05:56:21.098Z,100759.31
2023-01-04T05:58:48.721Z,100752.19
2023-01-04T06:01:16.380Z,100735.13
2023-01-04T06:03:44.242Z,100742.09
2023-01-04T06:06:13.407Z,100745.38
2023-01-04T06:08:40.985Z,100738.91
2023-01-04T06:11:08.569Z,100727.31
2023-01-04T06:13:36.510Z,100730.44
2023-01-04T06:16:04.212Z,100720.50
2023-01-04T06:18:31.804Z,100703.59
2023-01-04T06:20:59.454Z,100709.56
2023-01-04T06:23:28.501Z,100702.25
2023-01-04T06:25:56.094Z,100703.91
2023-01-04T06:28:23.845Z,100690.31
2023-01-04T06:30:51.559Z,100682.84
2023-01-04T06:33:19.144Z,100683.47
2023-01-04T06:35:54.935Z,100677.19
2023-01-04T06:38:22.708Z,100660.75
2023-01-04T06:40:51.660Z,100653.28
2023-01-04T06:43:19.367Z,100652.94
2023-01-04T06:45:47.054Z,100655.22
2023-01-04T06:48:18.231Z,100665.47
2023-01-04T06:50:46.641Z,100655.50
2023-01-04T06:53:14.236Z,100656.00
2023-01-04T06:55:41.836Z,100630.94
2023-01-04T06:58:10.764Z,100628.94
2023-01-04T07:00:38.601Z,100640.84
2023-01-04T07:03:14.488Z,100630.88
2023-01-04T07:05:43.699Z,100621.56
2023-01-04T07:08:12.123Z,100618.56
2023-01-04T07:10:40.004Z,100636.97
2023-01-04T07:13:08.659Z,100621.69
2023-01-04T07:15:40.657Z,100596.47
2023-01-04T07:18:10.000Z,100606.69
2023-01-04T07:20:38.591Z,100626.75
2023-01-04T07:23:07.209Z,100604.16
2023-01-04T07:25:34.946Z,100593.16
2023-01-04T07:28:03.238Z,100582.88
2023-01-04T07:30:31.305Z,100584.97
2023-01-04T07:33:00.277Z,100573.63
2023-01-04T07:35:28.283Z,100586.53
2023-01-04T07:37:58.604Z,100576.19
2023-01-04T07:40:27.288Z,100565.03
2023-01-04T07:42:56.906Z,100579.41
2023-01-04T07:45:25.013Z,100570.88
2023-01-04T07:47:52.591Z,100565.19
2023-01-04T07:50:21.538Z,100552.00
2023-01-04T07:52:49.134Z,100560.28
2023-01-04T07:55:16.984Z,100556.06
2023-01-04T07:57:44.602Z,100549.16
2023-01-04T08:00:13.698Z,100551.25
2023-01-04T08:02:41.438Z,100563.81
2023-01-04T08:05:09.558Z,100550.00
2023-01-04T08:07:38.667Z,100566.41
2023-01-04T08:10:07.486Z,100558.69
2023-01-04T08:12:35.210Z,100574.72
2023-01-04T08:15:02.829Z,100568.81
2023-01-04T08:17:30.378Z,100564.59
2023-01-04T08:19:58.121Z,100572.03
2023-01-04T08:22:25.748Z,100557.53
2023-01-04T08:24:54.723Z,100571.91
2023-01-04T08:27:22.303Z,100569.09
2023-01-04T08:29:49.895Z,100565.28
2023-01-04T08:32:17.503Z,100562.66
2023-01-04T08:34:45.079Z,100559.44
2023-01-04T08:37:12.677Z,100548.44
2023-01-04T08:39:44.075Z,100558.47
2023-01-04T08:42:24.798Z,100557.94
2023-01-04T08:45:00.815Z,100552.22
2023-01-04T08:47:29.070Z,100543.84
2023-01-04T08:49:57.559Z,100544.94
2023-01-04T08:52:25.428Z,100550.88
2023-01-04T08:54:54.077Z,100541.50
2023-01-04T08:57:23.055Z,100534.75
2023-01-04T08:59:50.713Z,100538.25
2023-01-04T09:02:23.624Z,100539.50
2023-01-04T09:04:51.487Z,100538.31
2023-01-04T09:07:19.708Z,100537.09
2023-01-04T09:09:47.310Z,100525.63
2023-01-04T09:12:14.945Z,100541.59
2023-01-04T09:14:43.921Z,100530.75
2023-01-04T09:17:11.624Z,100539.56
2023-01-04T09:19:39.176Z,100541.84
2023-01-04T09:22:06.854Z,100552.28
2023-01-04T09:24:35.120Z,100544.31
2023-01-04T09:27:04.615Z,100548.41
2023-01-04T09:29:32.349Z,100542.91
2023-01-04T09:32:01.630Z,100548.03
2023-01-04T09:34:29.653Z,100544.34
2023-01-04T09:36:57.239Z,100554.63
2023-01-04T09:39:26.269Z,100537.00
2023-01-04T09:41:58.279Z,100540.91
2023-01-04T09:45:21.246Z,100545.41
2023-01-04T09:47:35.898Z,100553.84
2023-01-04T09:50:10.908Z,100549.34
2023-01-04T09:52:50.116Z,100535.22
2023-01-04T09:55:37.850Z,100539.31
2023-01-04T09:58:16.734Z,100531.16
2023-01-04T10:00:47.692Z,100534.63
2023-01-04T10:03:22.788Z,100538.09
2023-01-04T10:05:52.084Z,100546.72
2023-01-04T10:08:20.857Z,100534.03
2023-01-04T10:10:53.173Z,100533.81
2023-01-04T10:13:37.389Z,100546.34
2023-01-04T10:16:17.310Z,100531.16
2023-01-04T10:19:17.274Z,100530.16
2023-01-04T10:21:48.540Z,100522.16
2023-01-04T10:24:34.016Z,100516.03
2023-01-04T10:27:08.975Z,100510.50
2023-01-04T10:29:43.582Z,100514.00
2023-01-04T10:32:20.440Z,100495.16
2023-01-04T10:34:49.617Z,100499.91
2023-01-04T10:37:21.044Z,100504.44
2023-01-04T10:39:55.231Z,100504.06
2023-01-04T10:42:33.432Z,100503.22
2023-01-04T10:45:14.599Z,100505.50
2023-01-04T10:47:53.973Z,100502.00
2023-01-04T10:50:28.875Z,100502.19
2023-01-04T10:53:02.642Z,100498.50
2023-01-04T10:55:37.114Z,100487.84
2023-01-04T10:58:11.892Z,100489.69
2023-01-04T11:00:44.805Z,100482.53
2023-01-04T11:03:19.992Z,100482.13
2023-01-04T11:05:52.383Z,100459.19
2023-01-04T11:08:24.139Z,100469.03
2023-01-04T11:10:56.869Z,100468.22
2023-01-04T11:13:26.056Z,100460.63
2023-01-04T11:15:54.003Z,100457.94
2023-01-04T11:18:22.018Z,100464.91
2023-01-04T11:20:51.098Z,100468.25
2023-01-04T11:23:20.642Z,100453.69
2023-01-04T11:25:56.107Z,100453.47
2023-01-04T11:28:29.028Z,100457.19
2023-01-04T11:31:04.258Z,100460.88
2023-01-04T11:33:32.788Z,100453.88
2023-01-04T11:36:02.687Z,100451.63
2023-01-04T11:38:31.552Z,100438.28
2023-01-04T11:41:02.769Z,100437.47
2023-01-04T11:43:31.389Z,100428.03
2023-01-04T11:46:04.387Z,100418.44
2023-01-04T11:48:35.799Z,100424.34
2023-01-04T11:51:08.314Z,100420.41
2023-01-04T11:53:38.569Z,100416.31
2023-01-04T11:56:18.323Z,100420.03
2023-01-04T11:59:04.112Z,100418.38
2023-01-04T12:01:33.105Z,100419.19
2023-01-04T12:04:01.248Z,100392.75
2023-01-04T12:06:37.600Z,100404.44
2023-01-04T12:09:05.197Z,100393.78
2023-01-04T12:11:35.930Z,100400.75
2023-01-04T12:14:05.394Z,100391.53
2023-01-04T12:16:46.127Z,100405.66
2023-01-04T12:19:16.904Z,100402.81
2023-01-04T12:21:50.328Z,100408.56
2023-01-04T12:24:22.327Z,100400.59
2023-01-04T12:26:52.134Z,100412.69
2023-01-04T12:29:44.102Z,100402.63
2023-01-04T12:32:41.276Z,100407.97
2023-01-04T12:36:01.877Z,100391.38
2023-01-04T12:38:59.213Z,100407.13
2023-01-04T12:42:10.613Z,100397.31
2023-01-04T12:45:16.779Z,100408.38
2023-01-04T12:48:03.881Z,100400.59
2023-01-04T12:50:32.218Z,100396.72
2023-01-04T12:53:28.702Z,100401.00
2023-01-04T12:55:54.696Z,100398.75
2023-01-04T13:02:20.743Z,100404.50
2023-01-04T13:04:49.369Z,100388.53
2023-01-04T13:07:23.269Z,100393.25
2023-01-04T13:09:55.315Z,100402.03
2023-01-04T13:12:51.941Z,100397.16
2023-01-04T13:15:25.149Z,100402.28
2023-01-04T13:17:54.329Z,100390.59
2023-01-04T13:20:25.701Z,100390.19
2023-01-04T13:22:55.258Z,100377.28
2023-01-04T13:25:24.830Z,100369.50
2023-01-04T13:28:00.698Z,100370.16
2023-01-04T13:30:33.967Z,100370.78
2023-01-04T13:33:28.123Z,100367.50
2023-01-04T13:36:04.203Z,100363.81
2023-01-04T13:38:35.148Z,100334.50
2023-01-04T13:41:04.862Z,100348.03
2023-01-04T13:43:58.670Z,100353.97
2023-01-04T13:46:27.772Z,100357.28
2023-01-04T13:49:03.405Z,100359.50
2023-01-04T13:51:37.783Z,100351.94
2023-01-04T13:54:07.632Z,100353.16
2023-01-04T13:56:36.360Z,100352.34
2023-01-04T13:59:04.295Z,100338.81
2023-01-04T14:01:34.294Z,100328.16
2023-01-04T14:04:06.160Z,100323.22
2023-01-04T14:06:35.959Z,100333.88
2023-01-04T14:09:08.414Z,100337.38
2023-01-04T14:12:07.176Z,100333.28
2023-01-04T14:14:41.005Z,100321.53
2023-01-04T14:17:16.690Z,100336.72
2023-01-04T14:19:51.759Z,100325.84
2023-01-04T14:22:38.962Z,100319.50
2023-01-04T14:25:40.716Z,100312.72
2023-01-04T14:28:49.672Z,100298.59
2023-01-04T14:31:26.200Z,100301.06
2023-01-04T14:33:54.655Z,100295.31
2023-01-04T14:36:27.300Z,100292.22
2023-01-04T14:39:09.072Z,100300.03
2023-01-04T14:41:38.848Z,100293.03
2023-01-04T14:44:15.645Z,100292.84
2023-01-04T14:46:47.165Z,100289.56
2023-01-04T14:49:15.383Z,100293.03
2023-01-04T14:51:47.259Z,100279.72
2023-01-04T14:54:23.932Z,100295.53
2023-01-04T14:56:53.313Z,100289.97
2023-01-04T14:59:23.559Z,100280.34
2023-01-04T15:01:51.512Z,100283.81
2023-01-04T15:04:19.396Z,100286.06
2023-01-04T15:06:54.692Z,100280.75
2023-01-04T15:09:22.474Z,100290.59
2023-01-04T15:11:50.258Z,100278.28
2023-01-04T15:14:18.592Z,100283.81
2023-01-04T15:16:46.568Z,100263.13
2023-01-04T15:19:14.717Z,100268.44
2023-01-04T15:21:42.364Z,100269.06
2023-01-04T15:24:11.690Z,100267.44
2023-01-04T15:26:39.994Z,100281.53
2023-01-04T15:29:08.537Z,100277.88
2023-01-04T15:31:39.817Z,100279.53
2023-01-04T15:34:08.113Z,100276.44
2023-01-04T15:36:38.529Z,100271.94
2023-01-04T15:39:06.641Z,100265.56
2023-01-04T15:41:53.261Z,100276.03
2023-01-04T15:44:20.872Z,100269.69
2023-01-04T15:46:50.616Z,100258.22
2023-01-04T15:49:18.351Z,100257.41
2023-01-04T15:51:46.049Z,100256.56
2023-01-04T15:54:13.814Z,100267.81
2023-01-04T15:56:42.962Z,100251.06
2023-01-04T15:59:10.880Z,100259.66
2023-01-04T16:01:38.589Z,100256.16
2023-01-04T16:04:07.104Z,100264.16
2023-01-04T16:06:35.192Z,100262.50
2023-01-04T16:09:02.863Z,100266.22
2023-01-04T16:11:30.912Z,100278.28
2023-01-04T16:13:59.880Z,100268.25
2023-01-04T16:16:29.188Z,100262.50
2023-01-04T16:18:58.177Z,100273.31
2023-01-04T16:21:27.596Z,100257.78
2023-01-04T16:24:03.864Z,100260.63
2023-01-04T16:26:33.559Z,100260.19
2023-01-04T16:29:02.827Z,100275.97
2023-01-04T16:31:34.310Z,100257.13
2023-01-04T16:34:02.155Z,100277.59
2023-01-04T16:36:29.811Z,100284.53
2023-01-04T16:38:57.567Z,100275.91
2023-01-04T16:41:26.001Z,100278.19
2023-01-04T16:43:55.491Z,100274.09
2023-01-04T16:46:26.664Z,100275.91
2023-01-04T16:48:56.013Z,100271.41
2023-01-04T16:51:25.341Z,100270.41
2023-01-04T16:53:53.665Z,100267.53
2023-01-04T16:56:23.958Z,100273.06
2023-01-04T16:58:52.328Z,100272.84
2023-01-04T17:01:22.488Z,100271.84
2023-01-04T17:03:54.935Z,100265.69
2023-01-04T17:06:24.165Z,100270.19
2023-01-04T17:08:53.590Z,100284.94
2023-01-04T17:14:13.855Z,100257.13
2023-01-04T17:16:42.308Z,100282.09
2023-01-04T17:19:11.582Z,100271.00
2023-01-04T17:21:39.123Z,100275.94
2023-01-04T17:24:07.422Z,100281.66
2023-01-04T17:26:35.127Z,100273.91
2023-01-04T17:29:03.558Z,100276.34
2023-01-04T17:31:33.522Z,100276.94
2023-01-04T17:34:02.511Z,100274.28
2023-01-04T17:36:31.719Z,100286.13
2023-01-04T17:39:00.496Z,100269.75
2023-01-04T17:41:30.604Z,100266.09
2023-01-04T17:44:01.159Z,100267.94
2023-01-04T17:46:31.698Z,100273.25
2023-01-04T17:49:21.714Z,100271.41
2023-01-04T17:51:50.510Z,100258.13
2023-01-04T17:54:18.369Z,100264.03
2023-01-04T17:56:46.066Z,100260.97
2023-01-04T17:59:13.675Z,100283.09
2023-01-04T18:01:41.311Z,100265.28
2023-01-04T18:04:09.330Z,100271.63
2023-01-04T18:06:38.401Z,100260.81
2023-01-04T18:09:09.077Z,100261.41
2023-01-04T18:11:37.365Z,100264.06
2023-01-04T18:14:09.817Z,100264.50
2023-01-04T18:16:56.910Z,100249.53
2023-01-04T18:19:26.200Z,100260.19
2023-01-04T18:21:54.107Z,100246.88
2023-01-04T18:24:39.245Z,100249.94
2023-01-04T18:27:25.462Z,100251.41
2023-01-04T18:29:55.037Z,100261.41
2023-01-04T18:32:23.772Z,100257.31
2023-01-04T18:34:51.739Z,100242.75
2023-01-04T18:37:19.628Z,100231.09
2023-01-04T18:39:49.697Z,100246.06
2023-01-04T18:42:17.524Z,100241.13
2023-01-04T18:44:49.091Z,100233.75
2023-01-04T18:47:18.389Z,100238.91
2023-01-04T18:49:46.520Z,100229.88
2023-01-04T18:52:14.118Z,100233.34
2023-01-04T18:54:42.968Z,100216.97
2023-01-04T18:57:12.249Z,100236.63
2023-01-04T18:59:40.257Z,100226.00
2023-01-04T19:02:07.966Z,100224.13
2023-01-04T19:04:37.236Z,100229.66
2023-01-04T19:07:04.867Z,100222.69
2023-01-04T19:09:32.842Z,100216.75
2023-01-04T19:12:00.674Z,100208.78
2023-01-04T19:14:29.751Z,100225.97
2023-01-04T19:16:57.439Z,100217.16
2023-01-04T19:19:25.568Z,100211.22
2023-01-04T19:21:53.227Z,100218.19
2023-01-04T19:24:20.821Z,100233.53
2023-01-04T19:26:48.525Z,100218.56
2023-01-04T19:29:16.174Z,100220.22
2023-01-04T19:31:45.191Z,100199.13
2023-01-04T19:34:12.821Z,100211.41
2023-01-04T19:36:40.667Z,100214.69
2023-01-04T19:39:09.215Z,100211.22
2023-01-04T19:41:38.222Z,100205.50
2023-01-04T19:44:08.161Z,100211.84
2023-01-04T19:46:38.669Z,100209.19
2023-01-04T19:49:14.561Z,100209.19
2023-01-04T19:51:44.009Z,100207.75
2023-01-04T19:54:11.711Z,100199.94
2023-01-04T19:56:40.915Z,100202.22
2023-01-04T19:59:08.830Z,100206.09
2023-01-04T20:01:37.093Z,100205.09
2023-01-04T20:04:05.124Z,100199.94
2023-01-04T20:06:35.059Z,100190.34
2023-01-04T20:09:02.983Z,100191.34
2023-01-04T20:11:30.916Z,100196.88
2023-01-04T20:13:58.791Z,100196.06
2023-01-04T20:16:26.533Z,100191.75
2023-01-04T20:18:55.866Z,100201.38
2023-01-04T20:21:23.710Z,100195.03
2023-01-04T20:23:52.657Z,100199.75
2023-01-04T20:26:20.613Z,100199.75
2023-01-04T20:28:48.701Z,100198.09
2023-01-04T20:31:19.002Z,100192.78
2023-01-04T20:33:48.330Z,100185.63
2023-01-04T20:36:17.501Z,100200.75
2023-01-04T20:38:47.137Z,100200.75
2023-01-04T20:41:18.550Z,100197.09
2023-01-04T20:43:46.464Z,100192.78
2023-01-04T20:46:16.788Z,100190.94
2023-01-04T20:48:44.879Z,100201.38
2023-01-04T20:51:15.483Z,100205.06
2023-01-04T20:53:43.264Z,100173.13
2023-01-04T20:56:14.054Z,100178.47
2023-01-04T20:58:43.301Z,100183.56
2023-01-04T21:01:11.403Z,100189.09
2023-01-04T21:03:39.913Z,100181.72
2023-01-04T21:06:10.152Z,100180.09
2023-01-04T21:08:39.464Z,100183.78
2023-01-04T21:11:07.877Z,100184.59
2023-01-04T21:13:36.036Z,100187.44
2023-01-04T21:16:05.509Z,100195.44
2023-01-04T21:18:34.211Z,100186.44
2023-01-04T21:21:06.125Z,100188.50
2023-01-04T21:23:33.882Z,100196.47
2023-01-04T21:26:05.997Z,100195.44
2023-01-04T21:28:33.768Z,100197.88
2023-01-04T21:31:01.555Z,100204.63
2023-01-04T21:33:30.832Z,100196.03
2023-01-04T21:35:58.420Z,100201.94
2023-01-04T21:38:26.147Z,100190.69
2023-01-04T21:40:53.705Z,100181.72
2023-01-04T21:43:21.335Z,100202.34
2023-01-04T21:45:48.890Z,100193.38
2023-01-04T21:48:16.490Z,100193.75
2023-01-04T21:50:45.429Z,100208.50
2023-01-04T21:53:12.970Z,100193.75
2023-01-04T21:55:40.563Z,100183.13
2023-01-04T21:58:08.154Z,100196.41
2023-01-04T22:00:35.756Z,100193.34
2023-01-04T22:03:03.383Z,100197.03
2023-01-04T22:05:32.189Z,100204.38
2023-01-04T22:08:01.111Z,100203.75
2023-01-04T22:10:28.701Z,100204.97
2023-01-04T22:12:56.267Z,100204.34
2023-01-04T22:15:23.893Z,100217.44
2023-01-04T22:17:51.885Z,100209.47
2023-01-04T22:20:19.603Z,100201.69
2023-01-04T22:22:47.190Z,100202.50
2023-01-04T22:25:16.229Z,100209.66
2023-01-04T22:27:43.911Z,100209.03
2023-01-04T22:30:12.615Z,100212.53
2023-01-04T22:32:40.284Z,100222.97
2023-01-04T22:35:08.814Z,100214.97
2023-01-04T22:37:36.486Z,100207.22
2023-01-04T22:40:04.245Z,100234.00
2023-01-04T22:42:33.147Z,100231.72
2023-01-04T22:45:00.740Z,100246.06
2023-01-04T22:47:28.394Z,100253.78
2023-01-04T22:49:56.010Z,100254.56
2023-01-04T22:52:23.610Z,100254.25
2023-01-04T22:54:51.203Z,100268.88
2023-01-04T22:57:18.783Z,100289.44
2023-01-04T22:59:47.738Z,100284.88
2023-01-04T23:02:15.351Z,100298.38
2023-01-04T23:04:43.199Z,100290.78
2023-01-04T23:07:10.761Z,100301.50
2023-01-04T23:09:38.734Z,100303.38
2023-01-04T23:12:06.887Z,100326.75
2023-01-04T23:14:34.511Z,100319.75
2023-01-04T23:17:03.542Z,100319.88
2023-01-04T23:19:31.335Z,100311.41
2023-01-04T23:21:58.994Z,100334.25
2023-01-04T23:24:26.687Z,100324.47
2023-01-04T23:26:54.224Z,100338.75
2023-01-04T23:29:21.868Z,100338.75
2023-01-04T23:31:49.907Z,100342.06
2023-01-04T23:34:19.070Z,100348.19
2023-01-04T23:36:46.719Z,100343.06
2023-01-04T23:39:17.006Z,100352.47
2023-01-04T23:41:48.110Z,100351.28
2023-01-04T23:44:18.085Z,100344.34
2023-01-04T23:46:46.148Z,100347.81
2023-01-04T23:49:14.476Z,100357.22
2023-01-04T23:51:43.567Z,100355.78
2023-01-04T23:54:11.235Z,100366.56
2023-01-04T23:56:40.044Z,100368.59
2023-01-04T23:59:08.229Z,100366.78
